METAR Analyzer

一覧表示

Hello, Guest. (Login)

ROAH/OKA  -  那覇

観測日時
2021-08-05 00:00 (UTC) (11分前)
気温
26
露点
26
湿数
0
相対湿度
100%
QNH
996hPa
推定現地気圧
995.6hPa
推定海面気圧
995.9hPa
体感温度
20.8
(無風時)
27.1
HI
27.3
気温前日比
-3
体感温度前日比
-2.8
HI前日比
-7.2
水平視程
5000m
鉛直視程
データなし
雲底高度
No dense clouds
V/I
VMC (VFR)
RVR (R18L)
>2000m ()
RVR (R18R)
>2000m ()
卓越風
12kt from 140° (100° ~ 170°)
ガスト
No gust
降水
強いしゅう雨性の雨
その他の天気
報告なし
少しの雲 @ 400ft AGL / 散在する雲 @ 800ft AGL / 少しの積乱雲 @ 2000ft AGL

ROAH 050000Z 14012KT 100V170 5000 R18L/P2000N R18R/P2000N +SHRA FEW004 SCT008 FEW020CB 26/26 Q0996

RODN  -  嘉手納基地

観測日時
2021-08-05 00:00 (UTC) (11分前)
気温
27
露点
26
湿数
1
相対湿度
94.3%
QNH
996.3hPa
推定現地気圧
991.1hPa
推定海面気圧
996.1hPa
体感温度
22.9
(無風時)
27.6
HI
31.9
気温前日比
-1
体感温度前日比
-0.2
HI前日比
-2.1
水平視程
3SM
鉛直視程
データなし
雲底高度
1500ft AGL
V/I
SVMC (SVFR)
Tower Vis
7920ft
卓越風
7kt from 90°
ガスト
No gust
降水
中程度の雨
その他の天気
もや
隙間のある雲 @ 1500ft AGL / 隙間のある雲 @ 3700ft AGL

RODN 050000Z 09007KT 3SM RA BR BKN015 BKN037 27/26 A2942 RMK AO2A TWR VIS 1 1/2 VIS 2 1/4 RWY23 SLP967 $

ROTM  -  普天間飛行場

観測日時
2021-08-04 22:56 (UTC) (75分前)
気温
26.7
露点
26.7
湿数
0
相対湿度
100%
QNH
998.0hPa
推定現地気圧
989.1hPa
推定海面気圧
997.6hPa
体感温度
23.4
(無風時)
27.7
HI
31.9
気温前日比
+0.6
体感温度前日比
+2.6
HI前日比
+4.5
水平視程
>10000m
鉛直視程
データなし
雲底高度
3000ft AGL
V/I
VMC (VFR)
RVR
No RVR data
卓越風
5kt from 140°
ガスト
No gust
降水
しゅう雨性の (周辺において)
その他の天気
報告なし
散在する雲 @ 1000ft AGL / 隙間のある雲 @ 3000ft AGL / 隙間のある雲 @ 6000ft AGL

ROTM 042256Z 14005KT 9999 VCSH SCT010 BKN030 BKN060 27/27 A2947 RMK SLP965 T02670267

RORK/KTD  -  北大東

観測日時
2021-08-05 00:00 (UTC) (11分前)
気温
28
露点
26
湿数
2
相対湿度
88.9%
QNH
1004hPa
推定現地気圧
1001.4hPa
推定海面気圧
1003.9hPa
体感温度
22.8
(無風時)
28.1
HI
33.8
気温前日比
-1
体感温度前日比
-0.8
HI前日比
-0.7
水平視程
>10000m
鉛直視程
データなし
雲底高度
1800ft AGL
V/I
VMC (VFR)
RVR
No RVR data
卓越風
15kt from 160°
ガスト
No gust
降水
報告なし
その他の天気
報告なし
散在する雲 @ 1100ft AGL / 隙間のある雲 @ 1800ft AGL / 隙間のある雲 @ 4800ft AGL

RORK 050000Z AUTO 16015KT 9999 SCT011 BKN018 BKN048 28/26 Q1004

ROMD/MMD  -  南大東

観測日時
2021-08-05 00:00 (UTC) (11分前)
気温
27
露点
26
湿数
1
相対湿度
94.3%
QNH
1004hPa
推定現地気圧
998.3hPa
推定海面気圧
1003.8hPa
体感温度
22.7
(無風時)
27.6
HI
31.9
気温前日比
-2
体感温度前日比
-2.4
HI前日比
-3.7
水平視程
>10000m
鉛直視程
データなし
雲底高度
3700ft AGL
V/I
VMC (VFR)
RVR
No RVR data
卓越風
8kt from 180°
ガスト
No gust
降水
弱い雨
その他の天気
報告なし
散在する雲 @ 1000ft AGL / 隙間のある雲 @ 3700ft AGL / 隙間のある雲 @ 4600ft AGL

ROMD 050000Z AUTO 18008KT 9999 -RA SCT010 BKN037 BKN046 27/26 Q1004

RORA/AGJ  -  粟国